createdAt,value
2022-12-29T00:00:51.755Z,959.72
2022-12-29T00:01:51.666Z,959.74
2022-12-29T00:02:51.889Z,959.79
2022-12-29T00:03:51.753Z,959.77
2022-12-29T00:04:51.781Z,959.78
2022-12-29T00:05:51.750Z,959.77
2022-12-29T00:06:51.649Z,959.74
2022-12-29T00:07:51.807Z,959.75
2022-12-29T00:08:51.647Z,959.76
2022-12-29T00:09:51.647Z,959.77
2022-12-29T00:10:51.653Z,959.83
2022-12-29T00:11:51.749Z,959.76
2022-12-29T00:12:51.733Z,959.78
2022-12-29T00:13:51.667Z,959.75
2022-12-29T00:14:51.775Z,959.77
2022-12-29T00:15:51.795Z,959.74
2022-12-29T00:16:51.694Z,959.73
2022-12-29T00:17:51.775Z,959.69
2022-12-29T00:18:51.854Z,959.72
2022-12-29T00:19:51.880Z,959.7
2022-12-29T00:20:51.767Z,959.71
2022-12-29T00:21:51.739Z,959.63
2022-12-29T00:22:51.690Z,959.66
2022-12-29T00:23:51.774Z,959.68
2022-12-29T00:24:51.837Z,959.65
2022-12-29T00:26:51.925Z,959.64
2022-12-29T00:27:51.751Z,959.66
2022-12-29T00:28:51.691Z,959.68
2022-12-29T00:29:51.776Z,959.66
2022-12-29T00:30:51.778Z,959.71
2022-12-29T00:31:51.867Z,959.69
2022-12-29T00:32:51.767Z,959.7
2022-12-29T00:33:51.860Z,959.68
2022-12-29T00:34:51.835Z,959.69
2022-12-29T00:36:51.857Z,959.66
2022-12-29T00:37:51.837Z,959.71
2022-12-29T00:38:51.827Z,959.65
2022-12-29T00:39:51.720Z,959.68
2022-12-29T00:40:51.731Z,959.71
2022-12-29T00:41:51.791Z,959.7
2022-12-29T00:42:51.862Z,959.66
2022-12-29T00:43:51.841Z,959.69
2022-12-29T00:44:51.815Z,959.73
2022-12-29T00:45:51.863Z,959.72
2022-12-29T00:46:51.918Z,959.66
2022-12-29T00:47:51.814Z,959.69
2022-12-29T00:50:51.886Z,959.73
2022-12-29T00:52:51.879Z,959.72
2022-12-29T00:53:51.909Z,959.71
2022-12-29T00:54:51.790Z,959.75
2022-12-29T00:55:51.840Z,959.74
2022-12-29T00:56:51.764Z,959.7
2022-12-29T00:58:51.775Z,959.67
2022-12-29T00:59:51.927Z,959.63
2022-12-29T01:00:51.798Z,959.65
2022-12-29T01:01:51.848Z,959.61
2022-12-29T01:02:51.834Z,959.63
2022-12-29T01:03:51.773Z,959.62
2022-12-29T01:04:51.878Z,959.63
2022-12-29T01:05:51.926Z,959.56
2022-12-29T01:06:51.907Z,959.6
2022-12-29T01:07:51.860Z,959.58
2022-12-29T01:08:51.841Z,959.64
2022-12-29T01:09:51.824Z,959.71
2022-12-29T01:10:51.825Z,959.73
2022-12-29T01:11:51.786Z,959.75
2022-12-29T01:12:51.897Z,959.79
2022-12-29T01:13:51.904Z,959.83
2022-12-29T01:14:51.948Z,959.86
2022-12-29T01:15:51.992Z,959.91
2022-12-29T01:16:51.797Z,959.96
2022-12-29T01:18:51.994Z,959.94
2022-12-29T01:19:51.897Z,959.88
2022-12-29T01:20:51.816Z,959.91
2022-12-29T01:21:51.835Z,959.93
2022-12-29T01:22:51.856Z,959.89
2022-12-29T01:23:51.955Z,959.87
2022-12-29T01:24:51.924Z,959.9
2022-12-29T01:25:51.891Z,959.95
2022-12-29T01:26:51.958Z,959.9
2022-12-29T01:27:51.921Z,959.92
2022-12-29T01:28:51.824Z,959.93
2022-12-29T01:29:51.852Z,959.91
2022-12-29T01:30:51.920Z,959.94
2022-12-29T01:31:51.943Z,959.95
2022-12-29T01:32:51.959Z,960
2022-12-29T01:33:51.936Z,960.02
2022-12-29T01:34:51.846Z,960.04
2022-12-29T01:35:51.865Z,960
2022-12-29T01:36:51.930Z,959.96
2022-12-29T01:37:51.993Z,959.99
2022-12-29T01:38:51.973Z,959.92
2022-12-29T01:39:51.946Z,959.95
2022-12-29T01:40:52.011Z,959.96
2022-12-29T01:41:51.962Z,959.92
2022-12-29T01:42:51.945Z,959.91
2022-12-29T01:43:51.908Z,959.9
2022-12-29T01:44:51.971Z,959.89
2022-12-29T01:45:51.979Z,959.95
2022-12-29T01:46:52.015Z,959.92
2022-12-29T01:47:51.996Z,959.96
2022-12-29T01:48:51.942Z,959.99
2022-12-29T01:49:51.907Z,960
2022-12-29T01:50:51.982Z,960.03
2022-12-29T01:51:51.951Z,960.04
2022-12-29T01:52:52.018Z,960.03
2022-12-29T01:53:51.976Z,960.07
2022-12-29T01:54:51.967Z,960.04
2022-12-29T01:55:52.019Z,960.07
2022-12-29T01:56:51.895Z,960.09
2022-12-29T01:57:51.891Z,960.07
2022-12-29T01:59:52.064Z,960.03
2022-12-29T02:00:52.014Z,960.05
2022-12-29T02:01:51.990Z,960.01
2022-12-29T02:02:52.186Z,959.97
2022-12-29T02:03:51.992Z,959.92
2022-12-29T02:04:51.917Z,959.93
2022-12-29T02:05:52.008Z,959.91
2022-12-29T02:07:51.950Z,959.88
2022-12-29T02:08:52.015Z,959.85
2022-12-29T02:09:52.920Z,959.86
2022-12-29T02:10:51.929Z,959.87
2022-12-29T02:12:52.931Z,959.86
2022-12-29T02:13:51.942Z,959.89
2022-12-29T02:14:52.024Z,959.9
2022-12-29T02:15:51.991Z,959.87
2022-12-29T02:16:51.988Z,959.85
2022-12-29T02:17:52.040Z,959.8
2022-12-29T02:18:52.092Z,959.77
2022-12-29T02:19:52.063Z,959.75
2022-12-29T02:20:52.020Z,959.69
2022-12-29T02:21:51.994Z,959.72
2022-12-29T02:22:52.075Z,959.66
2022-12-29T02:23:52.042Z,959.71
2022-12-29T02:24:52.095Z,959.77
2022-12-29T02:27:52.215Z,959.85
2022-12-29T02:29:52.035Z,959.87
2022-12-29T02:30:52.122Z,959.88
2022-12-29T02:31:52.106Z,959.87
2022-12-29T02:32:52.037Z,959.82
2022-12-29T02:33:51.988Z,959.81
2022-12-29T02:34:52.086Z,959.75
2022-12-29T02:36:51.997Z,959.77
2022-12-29T02:39:52.120Z,959.79
2022-12-29T02:40:52.019Z,959.77
2022-12-29T02:41:52.001Z,959.78
2022-12-29T02:42:52.010Z,959.71
2022-12-29T02:43:52.001Z,959.75
2022-12-29T02:44:53.090Z,959.78
2022-12-29T02:45:52.127Z,959.79
2022-12-29T02:46:52.017Z,959.76
2022-12-29T02:47:53.600Z,959.78
2022-12-29T02:49:52.022Z,959.81
2022-12-29T02:50:52.164Z,959.8
2022-12-29T02:51:52.041Z,959.74
2022-12-29T02:52:52.014Z,959.76
2022-12-29T02:53:52.018Z,959.77
2022-12-29T02:54:52.030Z,959.76
2022-12-29T02:55:52.019Z,959.73
2022-12-29T02:56:52.029Z,959.72
2022-12-29T02:57:52.044Z,959.68
2022-12-29T02:58:52.105Z,959.7
2022-12-29T02:59:52.172Z,959.71
2022-12-29T03:00:52.104Z,959.73
2022-12-29T03:01:52.211Z,959.71
2022-12-29T03:02:52.119Z,959.69
2022-12-29T03:04:53.252Z,959.68
2022-12-29T03:05:52.060Z,959.7
2022-12-29T03:06:52.056Z,959.67
2022-12-29T03:07:52.057Z,959.69
2022-12-29T03:08:52.082Z,959.61
2022-12-29T03:09:52.258Z,959.66
2022-12-29T03:11:52.109Z,959.68
2022-12-29T03:12:52.068Z,959.62
2022-12-29T03:13:52.233Z,959.6
2022-12-29T03:14:53.244Z,959.59
2022-12-29T03:15:52.091Z,959.6
2022-12-29T03:16:52.111Z,959.59
2022-12-29T03:17:52.090Z,959.61
2022-12-29T03:18:52.164Z,959.6
2022-12-29T03:19:52.079Z,959.59
2022-12-29T03:20:52.078Z,959.58
2022-12-29T03:21:52.231Z,959.6
2022-12-29T03:22:52.104Z,959.59
2022-12-29T03:23:52.090Z,959.6
2022-12-29T03:24:52.175Z,959.56
2022-12-29T03:25:52.129Z,959.52
2022-12-29T03:26:52.207Z,959.5
2022-12-29T03:27:52.183Z,959.47
2022-12-29T03:28:53.325Z,959.49
2022-12-29T03:29:52.220Z,959.48
2022-12-29T03:30:52.219Z,959.51
2022-12-29T03:32:52.213Z,959.54
2022-12-29T03:34:53.338Z,959.59
2022-12-29T03:35:52.220Z,959.6
2022-12-29T03:36:52.195Z,959.55
2022-12-29T03:37:52.158Z,959.48
2022-12-29T03:38:52.225Z,959.5
2022-12-29T03:39:52.190Z,959.45
2022-12-29T03:42:52.362Z,959.47
2022-12-29T03:43:52.145Z,959.4
2022-12-29T03:44:52.231Z,959.41
2022-12-29T03:45:52.350Z,959.43
2022-12-29T03:46:52.143Z,959.37
2022-12-29T03:47:52.145Z,959.41
2022-12-29T03:48:52.207Z,959.4
2022-12-29T03:49:52.405Z,959.35
2022-12-29T03:50:52.243Z,959.36
2022-12-29T03:51:52.174Z,959.35
2022-12-29T03:52:52.162Z,959.32
2022-12-29T03:53:52.270Z,959.37
2022-12-29T03:55:52.347Z,959.42
2022-12-29T03:56:52.168Z,959.35
2022-12-29T03:57:52.183Z,959.43
2022-12-29T03:58:52.289Z,959.4
2022-12-29T03:59:52.192Z,959.42
2022-12-29T04:00:52.333Z,959.43
2022-12-29T04:02:52.414Z,959.45
2022-12-29T04:03:52.420Z,959.4
2022-12-29T04:04:52.322Z,959.39
2022-12-29T04:05:52.262Z,959.38
2022-12-29T04:06:52.218Z,959.36
2022-12-29T04:08:52.288Z,959.28
2022-12-29T04:09:52.335Z,959.26
2022-12-29T04:10:52.315Z,959.27
2022-12-29T04:11:52.280Z,959.3
2022-12-29T04:12:52.202Z,959.26
2022-12-29T04:13:52.321Z,959.31
2022-12-29T04:14:52.210Z,959.34
2022-12-29T04:15:52.274Z,959.33
2022-12-29T04:16:52.240Z,959.34
2022-12-29T04:17:52.374Z,959.37
2022-12-29T04:18:52.216Z,959.31
2022-12-29T04:19:52.221Z,959.37
2022-12-29T04:20:53.561Z,959.31
2022-12-29T04:21:52.227Z,959.26
2022-12-29T04:22:52.327Z,959.23
2022-12-29T04:23:52.411Z,959.21
2022-12-29T04:24:52.252Z,959.18
2022-12-29T04:25:52.319Z,959.16
2022-12-29T04:27:52.243Z,959.11
2022-12-29T04:28:52.242Z,959.09
2022-12-29T04:29:53.593Z,959.1
2022-12-29T04:32:52.317Z,959.15
2022-12-29T04:33:52.378Z,959.18
2022-12-29T04:34:52.262Z,959.15
2022-12-29T04:35:52.262Z,959.12
2022-12-29T04:36:52.375Z,959.1
2022-12-29T04:37:52.286Z,959.07
2022-12-29T04:38:52.285Z,959.09
2022-12-29T04:39:52.386Z,959.11
2022-12-29T04:40:52.359Z,959.12
2022-12-29T04:41:52.284Z,959.11
2022-12-29T04:42:52.384Z,959.1
2022-12-29T04:43:52.360Z,959.07
2022-12-29T04:45:52.400Z,959
2022-12-29T04:47:52.421Z,959.04
2022-12-29T04:48:52.392Z,959.05
2022-12-29T04:49:52.357Z,959.09
2022-12-29T04:50:52.427Z,959.1
2022-12-29T04:51:52.409Z,959.11
2022-12-29T04:52:53.686Z,959.1
2022-12-29T04:54:52.300Z,959.13
2022-12-29T04:55:52.317Z,959.12
2022-12-29T04:56:52.323Z,959.16
2022-12-29T04:57:52.393Z,959.19
2022-12-29T04:58:52.461Z,959.15
2022-12-29T04:59:52.325Z,959.1
2022-12-29T05:00:52.322Z,959.11
2022-12-29T05:01:52.396Z,959.08
2022-12-29T05:03:52.475Z,959.04
2022-12-29T05:04:52.337Z,959.02
2022-12-29T05:06:52.464Z,959.01
2022-12-29T05:07:52.390Z,958.96
2022-12-29T05:08:52.463Z,958.98
2022-12-29T05:09:52.426Z,958.96
2022-12-29T05:12:52.477Z,958.95
2022-12-29T05:13:53.823Z,959.02
2022-12-29T05:14:52.456Z,959.05
2022-12-29T05:15:52.473Z,959.07
2022-12-29T05:16:52.372Z,959.12
2022-12-29T05:18:52.360Z,959.11
2022-12-29T05:20:52.463Z,959.1
2022-12-29T05:22:52.382Z,959.11
2022-12-29T05:24:52.379Z,959.13
2022-12-29T05:25:52.387Z,959.14
2022-12-29T05:26:52.475Z,959.1
2022-12-29T05:27:52.443Z,959.08
2022-12-29T05:28:52.389Z,959.06
2022-12-29T05:29:52.494Z,959.11
2022-12-29T05:30:53.366Z,959.12
2022-12-29T05:33:52.625Z,959.1
2022-12-29T05:34:52.438Z,959.12
2022-12-29T05:35:52.427Z,959.18
2022-12-29T05:36:53.431Z,959.14
2022-12-29T05:37:52.551Z,959.18
2022-12-29T05:38:52.495Z,959.1
2022-12-29T05:39:52.410Z,959.09
2022-12-29T05:40:52.529Z,959.1
2022-12-29T05:41:52.499Z,959.08
2022-12-29T05:43:52.531Z,959.07
2022-12-29T05:44:52.494Z,959.06
2022-12-29T05:45:52.429Z,959.02
2022-12-29T05:46:52.640Z,959.08
2022-12-29T05:47:52.439Z,959.07
2022-12-29T05:48:52.435Z,959.12
2022-12-29T05:49:52.547Z,959.11
2022-12-29T05:50:53.484Z,959.17
2022-12-29T05:51:52.580Z,959.16
2022-12-29T05:53:52.441Z,959.14
2022-12-29T05:54:52.582Z,959.15
2022-12-29T05:55:52.550Z,959.16
2022-12-29T05:57:52.621Z,959.17
2022-12-29T05:58:52.567Z,959.18
2022-12-29T05:59:52.631Z,959.21
2022-12-29T06:00:52.468Z,959.24
2022-12-29T06:02:52.718Z,959.22
2022-12-29T06:03:52.662Z,959.27
2022-12-29T06:04:52.470Z,959.33
2022-12-29T06:05:52.489Z,959.35
2022-12-29T06:06:52.598Z,959.33
2022-12-29T06:07:52.468Z,959.34
2022-12-29T06:08:52.657Z,959.32
2022-12-29T06:09:52.476Z,959.35
2022-12-29T06:10:52.577Z,959.37
2022-12-29T06:11:52.481Z,959.34
2022-12-29T06:12:52.611Z,959.29
2022-12-29T06:13:52.579Z,959.34
2022-12-29T06:14:52.486Z,959.3
2022-12-29T06:15:52.730Z,959.34
2022-12-29T06:16:52.671Z,959.33
2022-12-29T06:17:52.664Z,959.35
2022-12-29T06:18:52.609Z,959.36
2022-12-29T06:19:52.669Z,959.24
2022-12-29T06:20:52.547Z,959.3
2022-12-29T06:21:52.625Z,959.23
2022-12-29T06:22:52.619Z,959.28
2022-12-29T06:24:52.760Z,959.36
2022-12-29T06:25:52.710Z,959.34
2022-12-29T06:26:52.684Z,959.28
2022-12-29T06:27:52.626Z,959.34
2022-12-29T06:28:52.601Z,959.4
2022-12-29T06:29:52.673Z,959.35
2022-12-29T06:30:52.744Z,959.36
2022-12-29T06:31:52.593Z,959.39
2022-12-29T06:32:52.490Z,959.36
2022-12-29T06:34:52.608Z,959.35
2022-12-29T06:35:52.554Z,959.36
2022-12-29T06:36:52.649Z,959.38
2022-12-29T06:37:52.607Z,959.4
2022-12-29T06:38:52.678Z,959.42
2022-12-29T06:39:52.562Z,959.44
2022-12-29T06:43:52.673Z,959.46
2022-12-29T06:44:52.700Z,959.45
2022-12-29T06:45:52.665Z,959.48
2022-12-29T06:46:53.781Z,959.47
2022-12-29T06:47:52.678Z,959.46
2022-12-29T06:49:52.590Z,959.4
2022-12-29T06:50:52.692Z,959.38
2022-12-29T06:51:52.661Z,959.36
2022-12-29T06:52:52.578Z,959.3
2022-12-29T06:53:52.607Z,959.31
2022-12-29T06:54:52.676Z,959.29
2022-12-29T06:55:52.607Z,959.3
2022-12-29T06:57:52.673Z,959.28
2022-12-29T06:58:53.845Z,959.34
2022-12-29T06:59:52.712Z,959.33
2022-12-29T07:00:52.662Z,959.32
2022-12-29T07:01:52.699Z,959.3
2022-12-29T07:02:52.807Z,959.39
2022-12-29T07:03:52.673Z,959.4
2022-12-29T07:04:52.749Z,959.46
2022-12-29T07:05:52.627Z,959.43
2022-12-29T07:06:52.626Z,959.49
2022-12-29T07:07:52.758Z,959.45
2022-12-29T07:08:52.713Z,959.43
2022-12-29T07:09:52.625Z,959.41
2022-12-29T07:11:52.737Z,959.4
2022-12-29T07:13:52.834Z,959.39
2022-12-29T07:15:52.863Z,959.42
2022-12-29T07:16:52.838Z,959.41
2022-12-29T07:17:52.725Z,959.45
2022-12-29T07:18:52.795Z,959.47
2022-12-29T07:19:52.792Z,959.45
2022-12-29T07:21:52.881Z,959.42
2022-12-29T07:22:52.789Z,959.45
2022-12-29T07:23:52.753Z,959.38
2022-12-29T07:24:52.670Z,959.41
2022-12-29T07:26:52.739Z,959.44
2022-12-29T07:27:52.703Z,959.47
2022-12-29T07:28:52.780Z,959.48
2022-12-29T07:29:52.752Z,959.51
2022-12-29T07:30:52.711Z,959.46
2022-12-29T07:31:52.833Z,959.47
2022-12-29T07:32:52.754Z,959.42
2022-12-29T07:33:52.687Z,959.38
2022-12-29T07:34:52.783Z,959.39
2022-12-29T07:35:52.846Z,959.36
2022-12-29T07:36:52.727Z,959.37
2022-12-29T07:37:52.793Z,959.36
2022-12-29T07:38:52.745Z,959.37
2022-12-29T07:40:52.805Z,959.38
2022-12-29T07:41:52.699Z,959.42
2022-12-29T07:42:52.755Z,959.38
2022-12-29T07:43:52.798Z,959.36
2022-12-29T07:44:52.865Z,959.32
2022-12-29T07:45:52.842Z,959.31
2022-12-29T07:47:54.192Z,959.33
2022-12-29T07:48:52.850Z,959.31
2022-12-29T07:49:52.837Z,959.25
2022-12-29T07:50:52.877Z,959.28
2022-12-29T07:51:52.897Z,959.3
2022-12-29T07:52:52.729Z,959.26
2022-12-29T07:54:52.854Z,959.29
2022-12-29T07:55:52.733Z,959.28
2022-12-29T07:56:52.750Z,959.3
2022-12-29T07:57:52.858Z,959.27
2022-12-29T07:58:52.846Z,959.32
2022-12-29T07:59:52.746Z,959.28
2022-12-29T08:00:52.739Z,959.3
2022-12-29T08:02:52.866Z,959.31
2022-12-29T08:03:57.224Z,959.32
2022-12-29T08:04:52.819Z,959.41
2022-12-29T08:05:52.767Z,959.37
2022-12-29T08:06:52.888Z,959.35
2022-12-29T08:07:52.836Z,959.29
2022-12-29T08:08:52.778Z,959.32
2022-12-29T08:09:52.875Z,959.26
2022-12-29T08:10:52.821Z,959.28
2022-12-29T08:11:52.911Z,959.27
2022-12-29T08:12:52.875Z,959.24
2022-12-29T08:13:52.797Z,959.23
2022-12-29T08:14:52.792Z,959.26
2022-12-29T08:15:52.881Z,959.29
2022-12-29T08:16:52.787Z,959.28
2022-12-29T08:17:52.800Z,959.35
2022-12-29T08:18:52.877Z,959.34
2022-12-29T08:19:52.790Z,959.37
2022-12-29T08:20:55.794Z,959.38
2022-12-29T08:21:52.800Z,959.4
2022-12-29T08:22:52.825Z,959.42
2022-12-29T08:23:52.912Z,959.37
2022-12-29T08:24:52.885Z,959.39
2022-12-29T08:25:52.807Z,959.45
2022-12-29T08:27:53.011Z,959.46
2022-12-29T08:28:52.832Z,959.44
2022-12-29T08:30:52.832Z,959.48
2022-12-29T08:31:53.877Z,959.47
2022-12-29T08:32:52.815Z,959.49
2022-12-29T08:33:52.897Z,959.5
2022-12-29T08:34:52.848Z,959.49
2022-12-29T08:35:52.831Z,959.52
2022-12-29T08:36:52.829Z,959.51
2022-12-29T08:37:53.854Z,959.52
2022-12-29T08:38:52.937Z,959.51
2022-12-29T08:39:52.906Z,959.57
2022-12-29T08:40:52.853Z,959.6
2022-12-29T08:41:52.849Z,959.59
2022-12-29T08:42:52.859Z,959.64
2022-12-29T08:43:52.856Z,959.65
2022-12-29T08:44:52.940Z,959.63
2022-12-29T08:46:52.997Z,959.67
2022-12-29T08:47:52.975Z,959.69
2022-12-29T08:48:53.018Z,959.73
2022-12-29T08:49:52.866Z,959.69
2022-12-29T08:50:52.859Z,959.7
2022-12-29T08:51:52.996Z,959.69
2022-12-29T08:52:52.997Z,959.68
2022-12-29T08:53:52.965Z,959.69
2022-12-29T08:54:52.913Z,959.66
2022-12-29T08:56:52.960Z,959.63
2022-12-29T08:58:52.996Z,959.6
2022-12-29T09:00:52.928Z,959.59
2022-12-29T09:02:53.176Z,959.62
2022-12-29T09:04:15.319Z,959.59
2022-12-29T09:04:53.107Z,959.58
2022-12-29T09:05:52.974Z,959.64
2022-12-29T09:06:54.999Z,959.67
2022-12-29T09:07:52.915Z,959.64
2022-12-29T09:09:53.035Z,959.61
2022-12-29T09:10:52.920Z,959.7
2022-12-29T09:11:52.976Z,959.69
2022-12-29T09:12:52.925Z,959.71
2022-12-29T09:13:52.926Z,959.68
2022-12-29T09:14:52.977Z,959.71
2022-12-29T09:15:53.017Z,959.75
2022-12-29T09:16:53.012Z,959.8
2022-12-29T09:18:52.999Z,959.85
2022-12-29T09:19:52.954Z,959.89
2022-12-29T09:22:53.030Z,959.91
2022-12-29T09:23:52.971Z,959.9
2022-12-29T09:24:53.073Z,959.94
2022-12-29T09:25:52.953Z,959.93
2022-12-29T09:26:53.065Z,959.89
2022-12-29T09:27:53.091Z,959.92
2022-12-29T09:28:52.979Z,959.94
2022-12-29T09:29:53.107Z,959.91
2022-12-29T09:30:53.138Z,959.98
2022-12-29T09:32:55.236Z,960.07
2022-12-29T09:33:53.075Z,960.11
2022-12-29T09:34:53.044Z,960.15
2022-12-29T09:36:53.081Z,960.13
2022-12-29T09:37:53.007Z,960.12
2022-12-29T09:38:52.987Z,960.05
2022-12-29T09:39:54.596Z,960.06
2022-12-29T09:40:53.054Z,960
2022-12-29T09:41:54.675Z,959.98
2022-12-29T09:42:53.092Z,959.93
2022-12-29T09:43:53.052Z,959.92
2022-12-29T09:44:52.992Z,959.9
2022-12-29T09:45:53.095Z,959.86
2022-12-29T09:46:53.239Z,959.87
2022-12-29T09:47:53.028Z,959.82
2022-12-29T09:49:53.100Z,959.8
2022-12-29T09:50:53.143Z,959.83
2022-12-29T09:51:53.097Z,959.87
2022-12-29T09:52:53.020Z,959.92
2022-12-29T09:54:59.730Z,959.95
2022-12-29T09:55:54.427Z,959.92
2022-12-29T09:56:53.030Z,959.94
2022-12-29T09:57:53.031Z,959.91
2022-12-29T09:58:53.060Z,959.88
2022-12-29T09:59:53.147Z,959.86
2022-12-29T10:00:55.573Z,959.83
2022-12-29T10:01:53.391Z,959.76
2022-12-29T10:02:53.169Z,959.72
2022-12-29T10:03:53.043Z,959.71
2022-12-29T10:05:53.056Z,959.67
2022-12-29T10:07:19.723Z,959.69
2022-12-29T10:08:53.205Z,959.71
2022-12-29T10:09:53.185Z,959.69
2022-12-29T10:10:53.071Z,959.7
2022-12-29T10:11:53.163Z,959.66
2022-12-29T10:12:53.135Z,959.64
2022-12-29T10:13:53.199Z,959.62
2022-12-29T10:14:53.083Z,959.61
2022-12-29T10:15:53.179Z,959.59
2022-12-29T10:16:53.221Z,959.6
2022-12-29T10:17:53.095Z,959.57
2022-12-29T10:19:53.189Z,959.58
2022-12-29T10:20:53.177Z,959.57
2022-12-29T10:21:53.091Z,959.6
2022-12-29T10:22:53.212Z,959.56
2022-12-29T10:23:53.186Z,959.58
2022-12-29T10:24:53.142Z,959.59
2022-12-29T10:25:53.207Z,959.57
2022-12-29T10:26:53.098Z,959.53
2022-12-29T10:27:53.259Z,959.47
2022-12-29T10:28:53.096Z,959.49
2022-12-29T10:29:53.213Z,959.45
2022-12-29T10:30:53.099Z,959.5
2022-12-29T10:31:53.236Z,959.48
2022-12-29T10:32:53.107Z,959.46
2022-12-29T10:33:57.505Z,959.5
2022-12-29T10:34:53.110Z,959.53
2022-12-29T10:35:53.133Z,959.54
2022-12-29T10:36:53.130Z,959.51
2022-12-29T10:37:53.119Z,959.45
2022-12-29T10:38:53.141Z,959.47
2022-12-29T10:39:53.121Z,959.46
2022-12-29T10:40:53.151Z,959.41
2022-12-29T10:42:53.250Z,959.36
2022-12-29T10:43:53.151Z,959.34
2022-12-29T10:44:53.125Z,959.33
2022-12-29T10:46:53.291Z,959.3
2022-12-29T10:47:53.227Z,959.26
2022-12-29T10:48:53.155Z,959.23
2022-12-29T10:49:53.250Z,959.22
2022-12-29T10:51:53.286Z,959.21
2022-12-29T10:52:53.267Z,959.17
2022-12-29T10:53:57.598Z,959.15
2022-12-29T10:54:53.291Z,959.13
2022-12-29T10:55:53.265Z,959.18
2022-12-29T10:56:53.336Z,959.14
2022-12-29T10:57:53.184Z,959.15
2022-12-29T10:58:53.168Z,959.16
2022-12-29T10:59:53.168Z,959.13
2022-12-29T11:00:53.227Z,959.18
2022-12-29T11:02:53.556Z,959.24
2022-12-29T11:03:53.324Z,959.22
2022-12-29T11:04:53.195Z,959.23
2022-12-29T11:05:54.177Z,959.26
2022-12-29T11:06:53.320Z,959.25
2022-12-29T11:07:53.272Z,959.29
2022-12-29T11:08:53.202Z,959.26
2022-12-29T11:09:53.208Z,959.27
2022-12-29T11:10:53.265Z,959.29
2022-12-29T11:11:53.244Z,959.3
2022-12-29T11:12:53.305Z,959.35
2022-12-29T11:13:53.276Z,959.32
2022-12-29T11:14:53.352Z,959.28
2022-12-29T11:15:53.219Z,959.31
2022-12-29T11:17:53.219Z,959.26
2022-12-29T11:18:53.224Z,959.25
2022-12-29T11:19:53.222Z,959.26
2022-12-29T11:20:54.224Z,959.27
2022-12-29T11:22:53.296Z,959.26
2022-12-29T11:23:53.359Z,959.22
2022-12-29T11:24:53.232Z,959.27
2022-12-29T11:26:53.237Z,959.25
2022-12-29T11:27:53.345Z,959.29
2022-12-29T11:28:53.254Z,959.3
2022-12-29T11:29:53.267Z,959.25
2022-12-29T11:30:53.243Z,959.26
2022-12-29T11:31:53.297Z,959.18
2022-12-29T11:32:53.260Z,959.14
2022-12-29T11:33:53.330Z,959.11
2022-12-29T11:34:53.271Z,959.15
2022-12-29T11:35:53.378Z,959.2
2022-12-29T11:36:53.360Z,959.07
2022-12-29T11:37:53.266Z,959.19
2022-12-29T11:38:53.375Z,959.13
2022-12-29T11:39:53.352Z,959.14
2022-12-29T11:40:53.264Z,959.12
2022-12-29T11:41:53.278Z,959.14
2022-12-29T11:42:53.352Z,959.13
2022-12-29T11:43:53.329Z,959.12
2022-12-29T11:44:53.393Z,959.11
2022-12-29T11:45:53.455Z,959.13
2022-12-29T11:46:53.431Z,959.08
2022-12-29T11:47:53.427Z,959.05
2022-12-29T11:49:53.525Z,959.03
2022-12-29T11:50:53.426Z,959
2022-12-29T11:51:53.367Z,958.94
2022-12-29T11:52:53.300Z,958.87
2022-12-29T11:53:53.410Z,958.82
2022-12-29T11:54:53.368Z,958.79
2022-12-29T11:55:53.316Z,958.81
2022-12-29T11:56:53.411Z,958.77
2022-12-29T11:57:53.490Z,958.8
2022-12-29T11:58:53.318Z,958.81
2022-12-29T11:59:53.409Z,958.73
2022-12-29T12:00:53.339Z,958.7
2022-12-29T12:01:53.571Z,958.68
2022-12-29T12:02:53.460Z,958.61
2022-12-29T12:03:53.591Z,958.62
2022-12-29T12:04:53.458Z,958.64
2022-12-29T12:05:53.340Z,958.69
2022-12-29T12:06:53.345Z,958.71
2022-12-29T12:07:53.451Z,958.69
2022-12-29T12:08:53.431Z,958.73
2022-12-29T12:09:53.485Z,958.71
2022-12-29T12:10:53.449Z,958.73
2022-12-29T12:11:53.357Z,958.7
2022-12-29T12:12:53.360Z,958.64
2022-12-29T12:13:53.467Z,958.62
2022-12-29T12:15:56.527Z,958.59
2022-12-29T12:16:53.751Z,958.56
2022-12-29T12:17:53.431Z,958.52
2022-12-29T12:19:53.520Z,958.51
2022-12-29T12:20:53.450Z,958.49
2022-12-29T12:21:54.670Z,958.53
2022-12-29T12:23:53.529Z,958.47
2022-12-29T12:24:53.562Z,958.42
2022-12-29T12:25:53.474Z,958.45
2022-12-29T12:26:53.390Z,958.43
2022-12-29T12:27:53.396Z,958.41
2022-12-29T12:29:54.635Z,958.39
2022-12-29T12:30:53.691Z,958.32
2022-12-29T12:31:53.477Z,958.29
2022-12-29T12:32:53.404Z,958.27
2022-12-29T12:33:53.400Z,958.26
2022-12-29T12:35:54.708Z,958.17
2022-12-29T12:37:53.614Z,958.13
2022-12-29T12:39:53.461Z,958.14
2022-12-29T12:40:53.530Z,958.18
2022-12-29T12:41:54.650Z,958.12
2022-12-29T12:42:53.567Z,958.11
2022-12-29T12:43:53.504Z,958.1
2022-12-29T12:44:53.515Z,958.08
2022-12-29T12:46:53.558Z,958.09
2022-12-29T12:47:54.688Z,958.11
2022-12-29T12:48:53.547Z,958.09
2022-12-29T12:49:53.530Z,958.14
2022-12-29T12:50:53.486Z,958.19
2022-12-29T12:51:53.572Z,958.21
2022-12-29T12:52:53.472Z,958.16
2022-12-29T12:53:53.457Z,958.21
2022-12-29T12:54:53.456Z,958.17
2022-12-29T12:57:53.554Z,958.15
2022-12-29T12:58:53.492Z,958.1
2022-12-29T12:59:53.589Z,958.09
2022-12-29T13:00:53.554Z,958.07
2022-12-29T13:01:53.572Z,958.02
2022-12-29T13:03:53.624Z,958.04
2022-12-29T13:04:53.654Z,958.01
2022-12-29T13:05:53.491Z,958.02
2022-12-29T13:06:53.492Z,957.99
2022-12-29T13:07:53.646Z,958
2022-12-29T13:08:53.499Z,957.94
2022-12-29T13:09:53.475Z,957.92
2022-12-29T13:10:53.716Z,957.93
2022-12-29T13:11:53.507Z,957.89
2022-12-29T13:12:53.485Z,957.92
2022-12-29T13:13:53.566Z,957.87
2022-12-29T13:14:53.638Z,957.91
2022-12-29T13:15:53.517Z,957.92
2022-12-29T13:16:53.531Z,957.91
2022-12-29T13:17:53.570Z,957.9
2022-12-29T13:18:53.516Z,957.92
2022-12-29T13:19:53.550Z,957.9
2022-12-29T13:20:53.628Z,957.84
2022-12-29T13:21:58.895Z,957.9
2022-12-29T13:22:53.696Z,957.89
2022-12-29T13:23:53.558Z,957.9
2022-12-29T13:25:53.624Z,957.88
2022-12-29T13:26:53.655Z,957.89
2022-12-29T13:28:53.555Z,957.9
2022-12-29T13:29:53.627Z,957.94
2022-12-29T13:30:53.646Z,957.98
2022-12-29T13:31:53.540Z,957.95
2022-12-29T13:32:53.546Z,958
2022-12-29T13:33:53.831Z,957.98
2022-12-29T13:34:53.553Z,958.01
2022-12-29T13:35:53.645Z,958.02
2022-12-29T13:36:53.609Z,958
2022-12-29T13:37:53.682Z,958.06
2022-12-29T13:38:53.563Z,958.11
2022-12-29T13:39:53.567Z,958.06
2022-12-29T13:42:53.701Z,958.04
2022-12-29T13:44:53.659Z,958
2022-12-29T13:45:53.574Z,957.99
2022-12-29T13:46:53.702Z,957.94
2022-12-29T13:47:53.664Z,957.99
2022-12-29T13:48:54.580Z,957.98
2022-12-29T13:49:53.717Z,957.93
2022-12-29T13:50:53.807Z,957.92
2022-12-29T13:51:53.644Z,958.01
2022-12-29T13:52:53.612Z,958.02
2022-12-29T13:53:53.671Z,958.03
2022-12-29T13:54:53.607Z,958.07
2022-12-29T13:55:53.711Z,958.05
2022-12-29T13:56:53.676Z,958.08
2022-12-29T13:57:53.793Z,958.06
2022-12-29T13:58:53.605Z,958.11
2022-12-29T13:59:53.670Z,958.03
2022-12-29T14:00:53.618Z,958.06
2022-12-29T14:02:53.797Z,958.03
2022-12-29T14:03:54.249Z,958.07
2022-12-29T14:04:53.713Z,958.09
2022-12-29T14:05:53.693Z,958.11
2022-12-29T14:06:53.648Z,958.08
2022-12-29T14:07:53.718Z,958.1
2022-12-29T14:09:53.747Z,958.11
2022-12-29T14:10:53.733Z,958.17
2022-12-29T14:11:53.692Z,958.19
2022-12-29T14:12:53.663Z,958.21
2022-12-29T14:13:53.731Z,958.23
2022-12-29T14:14:54.751Z,958.2
2022-12-29T14:15:53.826Z,958.22
2022-12-29T14:16:53.654Z,958.2
2022-12-29T14:18:53.760Z,958.21
2022-12-29T14:19:53.751Z,958.23